Time;durP1;ratioP1;P1;durP2;ratioP2;P2;SDS_P1;SDS_P2;PMS_P1;PMS_P2;Temp;Humidity;BMP_temperature;BMP_pressure;BME280_temperature;BME280_humidity;BME280_pressure;Samples;Min_cycle;Max_cycle;Signal;HPM_P1;HPM_P2
2022/12/26 00:04:33;;;;;;;35.83;18.30;;;;;;;6.18;100.00;100229.14;3492066;83;99043;-87
2022/12/26 00:09:34;;;;;;;40.07;17.83;;;;;;;6.32;100.00;100226.74;3497481;83;31648;-89
2022/12/26 00:14:35;;;;;;;34.53;17.57;;;;;;;6.34;100.00;100208.62;3492508;83;98857;-89
2022/12/26 00:19:36;;;;;;;33.30;17.30;;;;;;;6.36;100.00;100209.86;3497335;83;31801;-88
2022/12/26 00:24:37;;;;;;;33.92;16.97;;;;;;;6.40;100.00;100194.91;3491434;82;98830;-90
2022/12/26 00:29:38;;;;;;;33.77;16.60;;;;;;;6.43;100.00;100196.36;3496435;84;34793;-89
2022/12/26 00:34:39;;;;;;;33.13;16.27;;;;;;;6.45;100.00;100202.28;3491103;82;98938;-86
2022/12/26 00:39:40;;;;;;;34.07;15.17;;;;;;;6.50;100.00;100195.15;3497329;83;35352;-88
2022/12/26 00:44:41;;;;;;;32.00;15.10;;;;;;;6.55;100.00;100207.18;3489411;83;98824;-87
2022/12/26 00:49:42;;;;;;;31.03;15.20;;;;;;;6.58;100.00;100191.45;3497137;83;35728;-87
2022/12/26 00:54:42;;;;;;;28.83;14.43;;;;;;;6.62;100.00;100198.36;3488552;82;98861;-87
2022/12/26 00:59:43;;;;;;;35.43;16.27;;;;;;;6.65;100.00;100192.19;3497185;83;34762;-86
2022/12/26 01:04:44;;;;;;;28.83;14.50;;;;;;;6.67;100.00;100181.68;3490439;83;98881;-88
2022/12/26 01:09:45;;;;;;;29.25;14.70;;;;;;;6.70;100.00;100187.23;3497899;83;34865;-88
2022/12/26 01:14:46;;;;;;;29.17;14.07;;;;;;;6.73;100.00;100187.09;3491391;83;98780;-87
2022/12/26 01:19:47;;;;;;;30.67;15.50;;;;;;;6.76;100.00;100175.45;3497562;83;25884;-88
2022/12/26 01:24:47;;;;;;;30.03;14.33;;;;;;;6.79;100.00;100185.09;3489727;83;98933;-87
2022/12/26 01:29:48;;;;;;;31.10;14.23;;;;;;;6.80;100.00;100169.45;3497626;83;32531;-87
2022/12/26 01:34:51;;;;;;;29.63;13.77;;;;;;;6.82;100.00;100141.97;3488245;83;98783;-88
2022/12/26 01:39:52;;;;;;;27.77;14.73;;;;;;;6.81;100.00;100124.58;3496147;82;32425;-88
2022/12/26 01:45:27;;;;;;;28.80;14.60;;;;;;;6.83;100.00;100112.69;3491457;83;99099;-88
2022/12/26 01:50:57;;;;;;;33.40;15.55;;;;;;;6.82;100.00;100107.78;3497642;83;34752;-88
2022/12/26 01:56:11;;;;;;;28.57;13.30;;;;;;;6.84;100.00;100097.29;3417391;84;30625;-89
2022/12/26 02:01:12;;;;;;;27.50;15.58;;;;;;;6.84;100.00;100091.81;3468242;82;99042;-87
2022/12/26 02:06:14;;;;;;;27.93;13.93;;;;;;;6.85;100.00;100101.60;3497671;83;25828;-88
2022/12/26 02:11:23;;;;;;;32.28;14.90;;;;;;;6.84;100.00;100086.91;3491590;82;99060;-89
2022/12/26 02:16:24;;;;;;;32.35;14.98;;;;;;;6.87;100.00;100086.20;3498349;83;34814;-87
2022/12/26 02:21:33;;;;;;;26.55;14.70;;;;;;;6.87;100.00;100076.04;3491300;83;98978;-88
2022/12/26 02:26:58;;;;;;;32.17;14.93;;;;;;;6.91;100.00;100080.20;3495559;83;33589;-88
2022/12/26 02:32:19;;;;;;;28.05;14.28;;;;;;;6.94;100.00;100067.19;3462984;83;98989;-87
2022/12/26 02:37:43;;;;;;;27.30;14.43;;;;;;;6.96;100.00;100056.10;3495678;83;32937;-88
2022/12/26 02:43:04;;;;;;;31.75;15.32;;;;;;;6.99;100.00;100040.91;3489550;82;99107;-87
2022/12/26 02:48:13;;;;;;;29.87;13.28;;;;;;;7.00;100.00;100027.44;3497349;83;33142;-87
2022/12/26 03:15:04;;;;;;;25.52;12.90;;;;;;;7.16;100.00;99995.30;3506772;82;98453;-87
2022/12/26 03:20:13;;;;;;;28.40;14.30;;;;;;;7.18;100.00;99990.23;3511683;83;34545;-88
2022/12/26 03:30:50;;;;;;;25.05;12.80;;;;;;;7.28;100.00;99986.33;3511217;83;34873;-87
2022/12/26 03:35:52;;;;;;;29.18;13.32;;;;;;;7.34;100.00;99987.60;3507106;82;98368;-87
2022/12/26 04:20:55;;;;;;;25.20;12.95;;;;;;;7.70;100.00;99993.84;3510758;83;34931;-87
2022/12/26 04:53:04;;;;;;;25.77;11.33;;;;;;;7.77;100.00;99963.03;3506788;83;98855;-88
2022/12/26 04:58:05;;;;;;;21.17;11.03;;;;;;;7.78;100.00;99959.12;3513119;83;25764;-88
2022/12/26 05:14:03;;;;;;;25.25;11.33;;;;;;;7.82;100.00;99962.72;3487215;83;98994;-88
2022/12/26 05:29:51;;;;;;;;;;;;;;;7.84;100.00;99949.43;3498157;83;26163;-89
2022/12/26 05:34:51;;;;;;;21.57;10.40;;;;;;;7.85;100.00;99939.48;3487234;82;84539;-88
2022/12/26 05:39:52;;;;;;;19.97;9.57;;;;;;;7.87;100.00;99939.92;3496336;83;33714;-88
2022/12/26 05:44:53;;;;;;;22.87;10.27;;;;;;;7.91;100.00;99946.81;3491156;82;98476;-87
2022/12/26 05:49:54;;;;;;;18.60;8.70;;;;;;;7.93;100.00;99960.92;3497523;83;33534;-89
2022/12/26 05:54:54;;;;;;;16.03;8.47;;;;;;;7.96;100.00;99956.09;3491233;83;98763;-90
2022/12/26 05:59:55;;;;;;;15.30;8.33;;;;;;;8.00;100.00;99952.79;3497681;83;33014;-88
2022/12/26 06:04:56;;;;;;;16.77;9.53;;;;;;;8.01;100.00;99948.91;3473718;82;98626;-88
2022/12/26 06:09:57;;;;;;;18.50;8.73;;;;;;;8.04;100.00;99950.89;3470032;84;28376;-89
2022/12/26 06:14:58;;;;;;;18.23;9.47;;;;;;;8.05;100.00;99964.23;3463373;82;98172;-88
2022/12/26 06:19:58;;;;;;;18.17;7.83;;;;;;;8.08;100.00;99951.14;3470021;85;26287;-89
2022/12/26 06:24:59;;;;;;;19.83;10.00;;;;;;;8.10;100.00;99948.84;3464067;83;98217;-88
2022/12/26 06:30:00;;;;;;;16.10;8.60;;;;;;;8.12;100.00;99949.25;3471002;84;25807;-88
2022/12/26 06:35:01;;;;;;;15.50;8.40;;;;;;;8.14;100.00;99959.84;3463447;83;98532;-91
2022/12/26 06:40:02;;;;;;;19.23;8.63;;;;;;;8.15;100.00;99948.52;3470522;84;26141;-90
2022/12/26 06:45:03;;;;;;;18.26;8.38;;;;;;;8.17;100.00;99944.81;3465206;83;98449;-89
2022/12/26 06:50:05;;;;;;;17.63;8.53;;;;;;;8.20;100.00;99944.11;3471179;84;25810;-90
2022/12/26 06:55:06;;;;;;;15.63;8.83;;;;;;;8.19;100.00;99943.84;3447876;84;98537;-90
2022/12/26 07:00:09;;;;;;;14.90;8.27;;;;;;;8.19;100.00;99958.92;3467220;84;26612;-90
2022/12/26 07:05:10;;;;;;;18.40;8.17;;;;;;;8.19;100.00;99943.84;3458849;82;98218;-90
2022/12/26 07:10:11;;;;;;;19.03;8.60;;;;;;;8.19;100.00;99947.19;3459953;84;33300;-89
2022/12/26 07:15:11;;;;;;;16.23;8.70;;;;;;;8.11;100.00;99942.76;3454736;84;98434;-90
2022/12/26 07:20:12;;;;;;;15.40;8.87;;;;;;;8.21;100.00;99965.44;3460096;84;33236;-90
2022/12/26 07:25:13;;;;;;;16.30;8.53;;;;;;;8.23;100.00;99944.72;3453890;82;98563;-90
2022/12/26 07:30:14;;;;;;;16.67;8.77;;;;;;;8.23;100.00;99941.20;3458659;84;33232;-90
2022/12/26 07:35:15;;;;;;;15.23;8.23;;;;;;;8.28;100.00;99954.59;3456269;84;98380;-90
2022/12/26 07:40:16;;;;;;;19.83;8.20;;;;;;;8.30;100.00;99947.54;3460338;84;33258;-90
2022/12/26 07:45:17;;;;;;;15.63;8.48;;;;;;;8.33;100.00;99967.38;3454878;83;98615;-89
2022/12/26 07:50:17;;;;;;;16.83;8.57;;;;;;;8.35;100.00;99955.44;3460508;84;31687;-90
2022/12/26 07:55:19;;;;;;;23.13;9.47;;;;;;;8.37;100.00;99950.39;3454154;84;98650;-89
2022/12/26 08:00:21;;;;;;;14.87;8.20;;;;;;;8.39;100.00;99961.77;3460690;84;31713;-90
2022/12/26 08:05:22;;;;;;;14.97;7.90;;;;;;;8.41;100.00;99967.66;3446819;84;98477;-90
2022/12/26 08:10:23;;;;;;;15.37;7.80;;;;;;;8.47;100.00;99984.01;3457774;84;31734;-90
2022/12/26 08:15:24;;;;;;;12.77;7.23;;;;;;;8.53;100.00;99982.52;3453604;84;98487;-90
2022/12/26 08:20:25;;;;;;;15.17;7.67;;;;;;;8.59;100.00;99993.92;3459216;84;31665;-90
2022/12/26 08:25:26;;;;;;;16.73;8.43;;;;;;;8.64;100.00;99994.97;3451103;83;98437;-90
2022/12/26 08:30:27;;;;;;;13.33;6.87;;;;;;;8.72;100.00;99990.56;3456315;84;31594;-90
2022/12/26 08:35:29;;;;;;;14.23;7.23;;;;;;;8.81;100.00;99982.83;3453505;82;98340;-89
2022/12/26 08:40:30;;;;;;;12.47;6.70;;;;;;;8.91;100.00;99986.84;3459310;85;31612;-92
2022/12/26 08:45:30;;;;;;;13.03;6.40;;;;;;;9.00;100.00;99978.51;3453169;83;98585;-89
2022/12/26 08:50:31;;;;;;;15.20;6.23;;;;;;;9.11;100.00;99974.52;3459561;84;32290;-89
2022/12/26 08:55:32;;;;;;;13.88;6.87;;;;;;;9.17;100.00;99973.77;3454157;82;98518;-90
2022/12/26 09:00:32;;;;;;;14.57;7.43;;;;;;;9.19;100.00;99983.81;3459675;84;25907;-89
2022/12/26 09:05:33;;;;;;;13.17;6.90;;;;;;;9.23;100.00;99987.95;3470081;82;98193;-92
2022/12/26 09:10:34;;;;;;;15.23;7.43;;;;;;;9.26;100.00;100003.09;3489989;83;34949;-93
2022/12/26 09:15:35;;;;;;;13.13;6.97;;;;;;;9.30;100.00;99995.68;3490350;82;98358;-91
2022/12/26 09:20:36;;;;;;;19.93;9.60;;;;;;;9.37;100.00;99994.96;3495084;83;35135;-90
2022/12/26 09:25:37;;;;;;;14.50;7.30;;;;;;;9.43;100.00;99986.58;3486897;83;98549;-89
2022/12/26 09:30:37;;;;;;;13.90;7.20;;;;;;;9.49;100.00;99994.06;3495001;83;34836;-90
2022/12/26 09:35:40;;;;;;;14.75;6.85;;;;;;;9.58;100.00;99999.23;3488138;82;98511;-92
2022/12/26 09:41:27;;;;;;;14.03;6.47;;;;;;;9.72;100.00;100017.22;3491814;83;34812;-90
2022/12/26 09:46:55;;;;;;;13.60;5.72;;;;;;;9.89;100.00;100023.43;3496309;83;34798;-90
2022/12/26 09:52:01;;;;;;;11.43;5.97;;;;;;;10.04;100.00;100012.77;3485133;83;98971;-90
2022/12/26 09:57:07;;;;;;;12.13;5.73;;;;;;;10.19;100.00;100002.07;3492364;83;25897;-92
2022/12/26 10:02:18;;;;;;;10.85;5.28;;;;;;;10.28;100.00;99990.12;3470955;82;99054;-91
2022/12/26 10:07:36;;;;;;;12.18;6.20;;;;;;;10.40;100.00;99984.27;3490955;83;35713;-92
2022/12/26 10:13:07;;;;;;;12.25;5.83;;;;;;;10.51;100.00;99977.66;3488276;82;99232;-93
2022/12/26 10:18:34;;;;;;;13.40;5.65;;;;;;;10.65;100.00;99965.91;3488193;83;34805;-92
2022/12/26 10:23:42;;;;;;;9.33;4.58;;;;;;;10.77;100.00;99971.06;3487785;82;99088;-95
2022/12/26 10:29:01;;;;;;;9.18;4.85;;;;;;;10.87;100.00;99973.05;3494668;83;34998;-92
2022/12/26 10:34:30;;;;;;;9.35;4.22;;;;;;;10.92;100.00;99979.56;3486111;83;98560;-95
2022/12/26 10:40:06;;;;;;;10.13;4.63;;;;;;;10.97;100.00;99986.84;3476806;84;43517;-92
2022/12/26 10:45:27;;;;;;;13.22;5.37;;;;;;;11.02;100.00;99984.31;3486214;82;98832;-94
2022/12/26 10:50:31;;;;;;;10.82;5.50;;;;;;;11.06;100.00;99976.84;3486123;83;35329;-92
2022/12/26 10:55:34;;;;;;;15.32;5.92;;;;;;;11.12;100.00;99973.91;3489656;82;98891;-92
2022/12/26 11:00:35;;;;;;;9.30;4.92;;;;;;;11.15;100.00;99967.02;3493615;83;34868;-91
2022/12/26 11:05:54;;;;;;;10.07;4.67;;;;;;;11.20;100.00;99963.08;3476923;82;98730;-93
2022/12/26 11:11:15;;;;;;;10.45;4.78;;;;;;;11.24;100.00;99957.00;3459262;84;34778;-90
2022/12/26 11:16:29;;;;;;;8.88;4.50;;;;;;;11.28;100.00;99966.05;3459096;84;34783;-90
2022/12/26 11:21:31;;;;;;;9.33;4.87;;;;;;;11.33;100.00;99981.59;3452471;84;98869;-89
2022/12/26 11:26:32;;;;;;;9.48;4.53;;;;;;;11.37;100.00;99989.28;3460290;84;35622;-91
2022/12/26 11:31:33;;;;;;;12.30;5.77;;;;;;;11.37;100.00;99982.97;3453063;84;99016;-89
2022/12/26 11:36:35;;;;;;;9.40;4.20;;;;;;;11.37;100.00;99998.12;3457144;84;26285;-90
2022/12/26 11:41:40;;;;;;;9.83;4.78;;;;;;;11.35;100.00;99994.98;3452607;83;98971;-92
2022/12/26 11:47:11;;;;;;;9.98;4.75;;;;;;;11.33;100.00;99999.50;3460798;84;33362;-92
2022/12/26 11:52:36;;;;;;;12.63;4.92;;;;;;;11.24;100.00;99992.20;3454969;82;98875;-93
2022/12/26 11:57:37;;;;;;;12.47;5.83;;;;;;;11.31;100.00;100008.76;3460000;84;34816;-89
2022/12/26 12:02:43;;;;;;;13.80;5.77;;;;;;;11.27;100.00;99995.56;3453445;83;98925;-94
2022/12/26 12:07:52;;;;;;;18.77;7.87;;;;;;;11.25;100.00;99988.29;3493572;82;26419;-91
2022/12/26 12:13:16;;;;;;;11.68;6.33;;;;;;;11.23;100.00;99992.61;3504137;81;98922;-90
2022/12/26 12:18:28;;;;;;;10.43;5.00;;;;;;;11.22;100.00;99977.23;3509285;82;34811;-91
2022/12/26 12:23:38;;;;;;;11.57;6.65;;;;;;;11.22;100.00;99962.09;3506728;82;98663;-91
2022/12/26 12:29:05;;;;;;;10.88;5.08;;;;;;;11.21;100.00;99964.08;3471544;82;35769;-91
2022/12/26 12:34:33;;;;;;;11.30;5.12;;;;;;;11.20;100.00;99967.22;3503466;82;99384;-88
2022/12/26 12:39:59;;;;;;;10.08;5.10;;;;;;;11.19;100.00;99958.19;3508353;82;34840;-88
2022/12/26 12:45:29;;;;;;;12.33;6.37;;;;;;;11.20;100.00;99963.08;3508265;82;98808;-90
2022/12/26 12:50:54;;;;;;;11.45;5.35;;;;;;;11.17;100.00;99971.54;3505030;83;34843;-88
2022/12/26 12:56:06;;;;;;;12.67;5.57;;;;;;;11.16;100.00;99976.85;3491584;83;99595;-89
2022/12/26 13:01:28;;;;;;;11.00;4.90;;;;;;;11.15;100.00;99977.23;3499301;83;99082;-90
2022/12/26 13:06:46;;;;;;;10.63;5.33;;;;;;;11.13;100.00;99984.51;3497476;83;34833;-88
2022/12/26 13:12:00;;;;;;;13.07;6.53;;;;;;;11.13;100.00;99975.48;3486524;82;99320;-89
2022/12/26 13:17:29;;;;;;;11.25;5.28;;;;;;;11.11;100.00;99976.44;3495004;83;35341;-89
2022/12/26 13:28:08;;;;;;;12.28;5.78;;;;;;;11.07;100.00;99969.55;3493006;83;36123;-90
2022/12/26 13:33:12;;;;;;;10.80;6.35;;;;;;;11.05;100.00;99992.57;3471043;83;98784;-88
2022/12/26 13:38:13;;;;;;;14.68;7.25;;;;;;;11.05;100.00;99983.52;3492261;83;26451;-91
2022/12/26 13:48:47;;;;;;;18.48;7.42;;;;;;;10.99;100.00;99976.81;3496741;83;34830;-91
2022/12/26 13:53:58;;;;;;;13.62;6.25;;;;;;;10.95;100.00;99974.66;3486614;82;98743;-89
2022/12/26 13:59:22;;;;;;;10.32;5.37;;;;;;;10.90;100.00;99992.33;3494861;83;35785;-90
2022/12/26 14:05:07;;;;;;;9.95;4.97;;;;;;;10.87;100.00;99991.75;3490779;83;98864;-89
2022/12/26 14:10:29;;;;;;;11.48;6.05;;;;;;;10.84;100.00;99997.25;3505847;84;34761;-90
2022/12/26 14:15:53;;;;;;;9.83;5.17;;;;;;;10.79;100.00;100005.28;3500864;82;98504;-89
2022/12/26 14:21:33;;;;;;;8.33;4.65;;;;;;;10.74;100.00;100006.25;3506493;84;35466;-90
2022/12/26 14:27:09;;;;;;;8.40;3.92;;;;;;;10.70;100.00;100009.00;3507240;83;35336;-90
2022/12/26 14:32:33;;;;;;;9.27;4.00;;;;;;;10.67;100.00;100013.89;3497155;83;98663;-90
2022/12/26 14:38:22;;;;;;;8.05;4.00;;;;;;;10.62;100.00;100031.34;3501989;84;33635;-90
2022/12/26 14:43:35;;;;;;;8.15;3.52;;;;;;;10.58;100.00;100024.45;3497921;83;98886;-91
2022/12/26 14:48:44;;;;;;;11.45;4.10;;;;;;;10.53;100.00;100019.32;3503390;83;36032;-91
2022/12/26 14:53:49;;;;;;;8.18;3.30;;;;;;;10.50;100.00;100026.19;3496538;82;99404;-91
2022/12/26 14:58:52;;;;;;;7.25;3.33;;;;;;;10.44;100.00;100045.61;3506044;82;35348;-89
2022/12/26 15:04:29;;;;;;;11.10;4.17;;;;;;;10.40;100.00;100042.84;3502424;82;99023;-90
2022/12/26 15:09:54;;;;;;;10.63;4.90;;;;;;;10.37;100.00;100039.47;3496466;82;25793;-89
2022/12/26 15:15:12;;;;;;;11.20;5.35;;;;;;;10.32;100.00;100017.86;3489727;83;98829;-88
2022/12/26 15:20:33;;;;;;;8.33;4.25;;;;;;;10.29;100.00;100038.45;3493369;83;35387;-89
2022/12/26 15:31:53;;;;;;;8.75;4.30;;;;;;;10.18;100.00;100064.52;3530553;82;98895;-87
2022/12/26 15:37:40;;;;;;;12.10;5.08;;;;;;;10.13;100.00;100044.25;3498198;83;34897;-90
2022/12/26 15:43:22;;;;;;;11.50;4.80;;;;;;;10.10;100.00;100042.86;3506475;82;99287;-88
2022/12/26 15:48:54;;;;;;;9.58;4.58;;;;;;;10.07;100.00;100043.03;3546512;82;35543;-86
2022/12/26 15:54:15;;;;;;;12.18;5.05;;;;;;;10.03;100.00;100054.55;3535056;82;98991;-88
2022/12/26 15:59:34;;;;;;;9.00;4.67;;;;;;;9.99;100.00;100050.22;3542384;81;33046;-86
2022/12/26 16:04:40;;;;;;;9.65;4.28;;;;;;;9.96;100.00;100058.64;3485080;82;98923;-87
2022/12/26 16:09:44;;;;;;;;;;;;;;;9.92;100.00;100063.91;3546104;82;26606;-88
2022/12/26 16:14:45;;;;;;;8.63;4.70;;;;;;;9.86;100.00;100079.95;3544259;82;84634;-87
2022/12/26 16:19:50;;;;;;;11.80;5.43;;;;;;;9.81;100.00;100083.65;3540617;82;25960;-87
2022/12/26 16:24:53;;;;;;;15.60;7.65;;;;;;;9.76;100.00;100093.02;3537533;82;98554;-88
2022/12/26 16:30:03;;;;;;;12.63;6.35;;;;;;;9.71;100.00;100099.45;3516252;82;33086;-89
2022/12/26 16:35:07;;;;;;;13.90;6.40;;;;;;;9.68;100.00;100105.70;3492852;81;98506;-92
2022/12/26 16:40:25;;;;;;;27.77;11.48;;;;;;;9.64;100.00;100111.16;3503815;83;34884;-89
2022/12/26 16:45:29;;;;;;;22.82;10.98;;;;;;;9.63;100.00;100112.91;3493009;81;98766;-88
2022/12/26 16:50:31;;;;;;;23.93;11.47;;;;;;;9.61;100.00;100102.89;3498042;83;32592;-87
2022/12/26 16:55:40;;;;;;;17.20;9.00;;;;;;;9.62;100.00;100104.46;3496516;82;98974;-88
2022/12/26 17:00:49;;;;;;;20.08;8.93;;;;;;;9.61;100.00;100106.44;3498884;83;33066;-88
2022/12/26 17:05:49;;;;;;;13.70;6.72;;;;;;;9.62;100.00;100105.84;3497280;82;98505;-89
2022/12/26 17:10:52;;;;;;;10.97;6.73;;;;;;;9.60;100.00;100107.58;3503537;82;26159;-88
2022/12/26 17:15:57;;;;;;;12.00;6.37;;;;;;;9.58;100.00;100102.25;3491707;82;98668;-89
2022/12/26 17:21:28;;;;;;;11.30;6.35;;;;;;;9.55;100.00;100105.77;3497774;82;98883;-91
2022/12/26 17:26:32;;;;;;;12.78;6.75;;;;;;;9.53;100.00;100107.52;3503288;83;34949;-88
2022/12/26 17:31:41;;;;;;;12.67;5.67;;;;;;;9.53;100.00;100102.59;3509633;80;98865;-90
2022/12/26 17:36:41;;;;;;;11.93;6.50;;;;;;;9.50;100.00;100101.99;3526863;82;33428;-88
2022/12/26 17:41:55;;;;;;;13.03;6.63;;;;;;;9.45;100.00;100100.96;3523213;82;98590;-88
2022/12/26 17:47:01;;;;;;;12.75;7.25;;;;;;;9.40;100.00;100096.61;3511870;82;33580;-89
2022/12/26 17:52:02;;;;;;;13.00;7.27;;;;;;;9.34;100.00;100092.63;3501333;81;98604;-90
2022/12/26 17:57:03;;;;;;;12.90;7.20;;;;;;;9.28;100.00;100096.08;3513439;82;25961;-89
2022/12/26 18:02:03;;;;;;;14.63;8.73;;;;;;;9.20;100.00;100106.19;3508421;81;98556;-88
2022/12/26 18:07:06;;;;;;;16.40;9.23;;;;;;;9.14;100.00;100110.44;3513597;82;28795;-90
2022/12/26 18:12:11;;;;;;;17.50;9.05;;;;;;;9.07;100.00;100109.55;3506022;81;98712;-88
2022/12/26 18:17:17;;;;;;;15.00;8.45;;;;;;;9.01;100.00;100110.48;3515596;82;34152;-89
2022/12/26 18:22:20;;;;;;;15.93;9.47;;;;;;;8.96;100.00;100097.09;3505488;81;98788;-88
2022/12/26 18:27:30;;;;;;;14.70;8.30;;;;;;;8.93;100.00;100105.25;3514013;82;34894;-88
2022/12/26 18:32:33;;;;;;;16.35;9.95;;;;;;;8.91;100.00;100107.02;3517818;81;98775;-89
2022/12/26 18:37:36;;;;;;;17.62;8.43;;;;;;;8.91;100.00;100103.48;3559405;81;33862;-88
2022/12/26 18:42:37;;;;;;;16.37;8.08;;;;;;;8.91;100.00;100100.73;3549824;81;98790;-88
2022/12/26 18:47:37;;;;;;;18.30;9.73;;;;;;;8.92;100.00;100106.42;3558995;81;26186;-88
2022/12/26 18:52:41;;;;;;;18.10;9.97;;;;;;;8.93;100.00;100112.12;3554184;81;98557;-89
2022/12/26 18:57:42;;;;;;;17.55;9.58;;;;;;;8.94;100.00;100115.09;3530187;81;35478;-88
2022/12/26 19:02:46;;;;;;;19.47;10.53;;;;;;;8.95;100.00;100104.32;3555766;81;99043;-88
2022/12/26 19:07:48;;;;;;;24.45;13.80;;;;;;;8.96;100.00;100093.55;3560724;81;35829;-87
2022/12/26 19:12:50;;;;;;;22.22;12.37;;;;;;;8.96;100.00;100104.52;3547764;81;98900;-89
2022/12/26 19:17:51;;;;;;;20.55;11.53;;;;;;;8.96;100.00;100102.58;3561917;81;32943;-89
2022/12/26 19:22:54;;;;;;;19.43;10.47;;;;;;;8.97;100.00;100114.33;3550114;81;98695;-89
2022/12/26 19:27:55;;;;;;;20.27;11.07;;;;;;;8.97;100.00;100100.04;3561266;81;28163;-91
2022/12/26 19:32:56;;;;;;;15.67;10.10;;;;;;;8.96;100.00;100105.33;3479030;81;98758;-91
2022/12/26 19:37:57;;;;;;;18.40;10.03;;;;;;;8.96;100.00;100099.84;3501787;81;33107;-88
2022/12/26 19:42:58;;;;;;;19.53;9.73;;;;;;;8.96;100.00;100116.30;3497982;80;98604;-91
2022/12/26 19:47:59;;;;;;;14.17;7.97;;;;;;;8.97;100.00;100117.08;3501142;83;33157;-91
2022/12/26 19:53:00;;;;;;;15.05;7.50;;;;;;;8.97;100.00;100122.56;3494020;81;98921;-90
2022/12/26 19:58:00;;;;;;;12.28;6.70;;;;;;;8.97;100.00;100115.14;3503292;83;33049;-88
2022/12/26 20:03:01;;;;;;;12.47;6.35;;;;;;;8.99;100.00;100119.66;3493930;81;98690;-89
2022/12/26 20:08:02;;;;;;;12.90;5.50;;;;;;;9.01;100.00;100117.92;3503412;81;33139;-92
2022/12/26 20:13:03;;;;;;;10.83;5.97;;;;;;;9.02;100.00;100109.31;3494782;83;98844;-91
2022/12/26 20:18:04;;;;;;;10.60;5.83;;;;;;;9.01;100.00;100113.23;3505156;83;25814;-89
2022/12/26 20:23:04;;;;;;;14.07;5.73;;;;;;;9.06;100.00;100109.36;3494953;81;98483;-90
2022/12/26 20:28:05;;;;;;;10.03;5.40;;;;;;;9.06;100.00;100111.50;3503090;83;26012;-88
2022/12/26 20:33:06;;;;;;;14.67;6.67;;;;;;;9.07;100.00;100118.59;3531581;81;99088;-89
2022/12/26 20:38:07;;;;;;;13.07;6.80;;;;;;;9.08;100.00;100115.25;3581640;81;25908;-91
2022/12/26 20:43:07;;;;;;;11.93;6.35;;;;;;;9.07;100.00;100125.45;3571506;81;98929;-89
2022/12/26 20:48:08;;;;;;;10.37;4.77;;;;;;;9.08;100.00;100134.47;3577727;81;33267;-89
2022/12/26 20:53:09;;;;;;;9.67;4.57;;;;;;;9.05;100.00;100134.63;3566602;81;98476;-89
2022/12/26 20:58:10;;;;;;;11.63;5.37;;;;;;;9.05;100.00;100142.09;3576656;81;33176;-88
2022/12/26 21:03:15;;;;;;;9.80;5.27;;;;;;;9.03;100.00;100154.81;3561743;81;98511;-88
2022/12/26 21:08:15;;;;;;;10.23;4.30;;;;;;;9.01;100.00;100168.12;3573956;81;25874;-88
2022/12/26 21:13:16;;;;;;;9.63;4.00;;;;;;;9.00;100.00;100170.64;3567705;80;98715;-88
2022/12/26 21:18:17;;;;;;;10.90;4.30;;;;;;;8.98;100.00;100154.33;3573847;81;33224;-91
2022/12/26 21:23:21;;;;;;;9.10;4.03;;;;;;;8.97;100.00;100146.70;3560237;81;98508;-85
2022/12/26 21:28:22;;;;;;;12.20;4.97;;;;;;;8.92;100.00;100164.86;3574232;81;26383;-88
2022/12/26 21:33:24;;;;;;;15.97;5.53;;;;;;;8.87;100.00;100164.38;3571025;80;98586;-90
2022/12/26 21:38:28;;;;;;;8.57;4.13;;;;;;;8.83;100.00;100180.03;3556172;81;31977;-89
2022/12/26 21:43:29;;;;;;;12.80;4.57;;;;;;;8.78;100.00;100155.66;3545766;81;98629;-90
2022/12/26 21:48:30;;;;;;;16.97;4.50;;;;;;;8.75;100.00;100165.98;3558294;81;33837;-89
2022/12/26 21:53:31;;;;;;;16.60;6.17;;;;;;;8.70;100.00;100178.64;3550941;81;98532;-88
2022/12/26 21:59:54;;;;;;;13.60;5.12;;;;;;;8.66;100.00;100159.96;3559258;81;33256;-90
2022/12/26 22:08:58;;;;;;;8.23;3.97;;;;;;;8.59;100.00;100190.05;3558998;81;25915;-89
2022/12/26 22:13:59;;;;;;;7.70;3.50;;;;;;;8.55;100.00;100188.63;3554599;81;98793;-88
2022/12/26 22:19:05;;;;;;;7.47;3.25;;;;;;;8.51;100.00;100203.45;3559035;82;33961;-90
2022/12/26 22:24:10;;;;;;;8.63;4.50;;;;;;;8.46;100.00;100216.87;3569269;81;98351;-89
2022/12/26 22:29:40;;;;;;;9.77;3.83;;;;;;;8.41;100.00;100226.78;3554492;81;33240;-90
2022/12/26 22:34:46;;;;;;;7.15;3.45;;;;;;;8.37;100.00;100230.63;3542090;80;98769;-89
2022/12/26 22:39:49;;;;;;;7.03;3.97;;;;;;;8.25;100.00;100224.78;3558629;80;26412;-89
2022/12/26 22:44:53;;;;;;;8.07;3.53;;;;;;;8.28;100.00;100239.11;3476576;83;98117;-90
2022/12/26 22:50:19;;;;;;;8.27;2.67;;;;;;;8.21;100.00;100242.30;3520318;82;26468;-91
2022/12/26 22:55:58;;;;;;;6.60;2.73;;;;;;;8.15;100.00;100243.17;3503282;82;98757;-90
2022/12/26 23:01:00;;;;;;;6.73;3.07;;;;;;;8.13;100.00;100250.17;3398038;85;33576;-90
2022/12/26 23:06:02;;;;;;;7.73;2.53;;;;;;;8.07;100.00;100266.11;3503043;83;25999;-91
2022/12/26 23:12:41;;;;;;;4.30;2.00;;;;;;;8.00;100.00;100263.81;3514315;82;98479;-91
2022/12/26 23:16:40;;;;;;;3.00;1.50;;;;;;;7.90;100.00;100273.42;3488643;83;33309;-91
2022/12/26 23:21:42;;;;;;;8.13;1.77;;;;;;;7.73;100.00;100262.92;3427369;82;98759;-91
2022/12/26 23:26:47;;;;;;;1.57;0.67;;;;;;;7.71;100.00;100289.89;3523638;83;33449;-92
2022/12/26 23:31:47;;;;;;;3.95;1.00;;;;;;;7.60;100.00;100299.84;3526763;82;98416;-92
2022/12/26 23:36:48;;;;;;;5.30;0.80;;;;;;;7.53;100.00;100292.05;3535022;82;33868;-91
2022/12/26 23:41:49;;;;;;;2.23;0.70;;;;;;;7.43;100.00;100317.26;3528683;82;98872;-91
2022/12/26 23:46:50;;;;;;;2.87;0.83;;;;;;;7.33;100.00;100332.88;3539302;82;33264;-90
2022/12/26 23:51:51;;;;;;;3.97;1.50;;;;;;;7.21;100.00;100341.20;3532873;80;98378;-92
2022/12/26 23:56:54;;;;;;;3.33;1.20;;;;;;;7.13;100.00;100338.06;3550875;80;33243;-93
